Taiki Maru — JI3464 — position and weather

sailwx.info

Track history (hours):
 
Tides and Currents Weather Stations Pressure Air Temp Water Temp Dewpoint Dewpoint Depression Visibility Wind Speed Wind Dir Waves Ship Positions

Taiki Maru

Last reported at 2015-Jul-04 17:14 UTC. Time now 2015-Jul-05 23:20 UTC.
Position N 33°41' E 129°56'.

Length 93 m; draft 7.2 m.

Type: Cargo ship. MMSI: 431300622.

Date/timePositionNaut miles runAvg speedWind from/ knotsBaromVisibWave heightAir tempDewpointWater temp
2015-Jul-04 17:14N 33°41' E 129°56'811.4
2015-Jul-04 16:31N 33°45' E 130°04'1312.0
2015-Jul-04 15:27N 33°53' E 130°16'  
2015-Jun-27 23:19N 34°32' E 138°36'57 9.9
2015-Jun-27 17:33N 35°02' E 139°35'1111.6
2015-Jun-27 16:34N 35°10' E 139°45'10 9.7
2015-Jun-27 15:34N 35°20' E 139°42'5 4.4
2015-Jun-27 14:31N 35°24' E 139°44'0 0.0
2015-Jun-27 13:31N 35°24' E 139°44'0 0.0
2015-Jun-27 12:31N 35°24' E 139°44'0 0.0
2015-Jun-27 11:31N 35°24' E 139°44'0 0.0
2015-Jun-27 10:31N 35°24' E 139°44'0 0.1
2015-Jun-27 09:31N 35°24' E 139°44'0 0.1
2015-Jun-27 08:31N 35°24' E 139°44'2 2.5
2015-Jun-27 07:34N 35°25' E 139°42'1 0.9
2015-Jun-27 06:33N 35°26' E 139°41'0 0.0
2015-Jun-27 05:31N 35°26' E 139°41'0 0.0
2015-Jun-27 04:31N 35°26' E 139°41'1 0.7
2015-Jun-27 03:33N 35°26' E 139°42'0 0.0
2015-Jun-27 02:33N 35°26' E 139°42'0 0.1
2015-Jun-27 01:33N 35°26' E 139°42'0 0.1
2015-Jun-27 00:33N 35°25' E 139°42'0 0.0
2015-Jun-26 23:33N 35°25' E 139°42'1 1.0
2015-Jun-26 22:33N 35°26' E 139°42'3 2.4
2015-Jun-26 21:28N 35°29' E 139°40'0 0.0
2015-Jun-26 20:31N 35°29' E 139°40'0 0.0
2015-Jun-26 19:28N 35°29' E 139°40'0 0.0
2015-Jun-26 18:31N 35°29' E 139°40'0 0.0
2015-Jun-26 17:28N 35°29' E 139°40'0 0.0
2015-Jun-26 16:31N 35°29' E 139°40'0 0.0
2015-Jun-26 15:31N 35°29' E 139°40'0 0.0
2015-Jun-26 14:31N 35°29' E 139°40'0 0.0
2015-Jun-26 13:31N 35°29' E 139°40'0 0.0
2015-Jun-26 12:31N 35°29' E 139°40'0 0.0
2015-Jun-26 11:31N 35°29' E 139°40'0 0.0
2015-Jun-26 10:31N 35°29' E 139°40'0 0.0
2015-Jun-26 09:31N 35°29' E 139°40'0 0.0
2015-Jun-26 08:31N 35°29' E 139°40'0 0.0
2015-Jun-26 07:31N 35°29' E 139°40'0 0.0
2015-Jun-26 06:31N 35°29' E 139°40'0 0.0
2015-Jun-26 05:31N 35°29' E 139°40'0 0.0
2015-Jun-26 04:31N 35°29' E 139°40'0 0.0
2015-Jun-26 03:31N 35°29' E 139°40'1 1.4
2015-Jun-26 02:33N 35°27' E 139°40'5 5.3
2015-Jun-26 01:33N 35°23' E 139°44'0 0.1
2015-Jun-26 00:33N 35°23' E 139°44'0 0.0
2015-Jun-25 23:33N 35°23' E 139°44'0 0.0
2015-Jun-25 22:33N 35°23' E 139°44'0 0.1
2015-Jun-25 21:33N 35°23' E 139°44'0 0.0
2015-Jun-25 20:33N 35°23' E 139°44'0 0.0
2015-Jun-25 19:33N 35°23' E 139°44'0 0.0
2015-Jun-25 18:33N 35°23' E 139°44'0 0.1
2015-Jun-25 17:33N 35°23' E 139°44'0 0.0
2015-Jun-25 16:33N 35°23' E 139°44'0 0.0
2015-Jun-25 15:33N 35°23' E 139°44'1 1.3
2015-Jun-25 14:33N 35°22' E 139°43'1111.1
2015-Jun-25 13:33N 35°11' E 139°47'1211.5
2015-Jun-25 12:33N 35°02' E 139°39'  
Track history (hours):
 
Tides and Currents Weather Stations Pressure Air Temp Water Temp Dewpoint Dewpoint Depression Visibility Wind Speed Wind Dir Waves Ship Positions

Taiki Maru

Last reported at 2015-Jul-04 17:14 UTC. Time now 2015-Jul-05 23:20 UTC.
Position N 33°41' E 129°56'.

Length 93 m; draft 7.2 m.

Type: Cargo ship. MMSI: 431300622.

Date/timePositionNaut miles runAvg speedWind from/ knotsBaromVisibWave heightAir tempDewpointWater temp
2015-Jul-04 17:14N 33°41' E 129°56'811.4
2015-Jul-04 16:31N 33°45' E 130°04'1312.0
2015-Jul-04 15:27N 33°53' E 130°16'  
2015-Jun-27 23:19N 34°32' E 138°36'57 9.9
2015-Jun-27 17:33N 35°02' E 139°35'1111.6
2015-Jun-27 16:34N 35°10' E 139°45'10 9.7
2015-Jun-27 15:34N 35°20' E 139°42'5 4.4
2015-Jun-27 14:31N 35°24' E 139°44'0 0.0
2015-Jun-27 13:31N 35°24' E 139°44'0 0.0
2015-Jun-27 12:31N 35°24' E 139°44'0 0.0
2015-Jun-27 11:31N 35°24' E 139°44'0 0.0
2015-Jun-27 10:31N 35°24' E 139°44'0 0.1
2015-Jun-27 09:31N 35°24' E 139°44'0 0.1
2015-Jun-27 08:31N 35°24' E 139°44'2 2.5
2015-Jun-27 07:34N 35°25' E 139°42'1 0.9
2015-Jun-27 06:33N 35°26' E 139°41'0 0.0
2015-Jun-27 05:31N 35°26' E 139°41'0 0.0
2015-Jun-27 04:31N 35°26' E 139°41'1 0.7
2015-Jun-27 03:33N 35°26' E 139°42'0 0.0
2015-Jun-27 02:33N 35°26' E 139°42'0 0.1
2015-Jun-27 01:33N 35°26' E 139°42'0 0.1
2015-Jun-27 00:33N 35°25' E 139°42'0 0.0
2015-Jun-26 23:33N 35°25' E 139°42'1 1.0
2015-Jun-26 22:33N 35°26' E 139°42'3 2.4
2015-Jun-26 21:28N 35°29' E 139°40'0 0.0
2015-Jun-26 20:31N 35°29' E 139°40'0 0.0
2015-Jun-26 19:28N 35°29' E 139°40'0 0.0
2015-Jun-26 18:31N 35°29' E 139°40'0 0.0
2015-Jun-26 17:28N 35°29' E 139°40'0 0.0
2015-Jun-26 16:31N 35°29' E 139°40'0 0.0
2015-Jun-26 15:31N 35°29' E 139°40'0 0.0
2015-Jun-26 14:31N 35°29' E 139°40'0 0.0
2015-Jun-26 13:31N 35°29' E 139°40'0 0.0
2015-Jun-26 12:31N 35°29' E 139°40'0 0.0
2015-Jun-26 11:31N 35°29' E 139°40'0 0.0
2015-Jun-26 10:31N 35°29' E 139°40'0 0.0
2015-Jun-26 09:31N 35°29' E 139°40'0 0.0
2015-Jun-26 08:31N 35°29' E 139°40'0 0.0
2015-Jun-26 07:31N 35°29' E 139°40'0 0.0
2015-Jun-26 06:31N 35°29' E 139°40'0 0.0
2015-Jun-26 05:31N 35°29' E 139°40'0 0.0
2015-Jun-26 04:31N 35°29' E 139°40'0 0.0
2015-Jun-26 03:31N 35°29' E 139°40'1 1.4
2015-Jun-26 02:33N 35°27' E 139°40'5 5.3
2015-Jun-26 01:33N 35°23' E 139°44'0 0.1
2015-Jun-26 00:33N 35°23' E 139°44'0 0.0
2015-Jun-25 23:33N 35°23' E 139°44'0 0.0
2015-Jun-25 22:33N 35°23' E 139°44'0 0.1
2015-Jun-25 21:33N 35°23' E 139°44'0 0.0
2015-Jun-25 20:33N 35°23' E 139°44'0 0.0
2015-Jun-25 19:33N 35°23' E 139°44'0 0.0
2015-Jun-25 18:33N 35°23' E 139°44'0 0.1
2015-Jun-25 17:33N 35°23' E 139°44'0 0.0
2015-Jun-25 16:33N 35°23' E 139°44'0 0.0
2015-Jun-25 15:33N 35°23' E 139°44'1 1.3
2015-Jun-25 14:33N 35°22' E 139°43'1111.1
2015-Jun-25 13:33N 35°11' E 139°47'1211.5
2015-Jun-25 12:33N 35°02' E 139°39'  

Dump ship's entire track history